createdAt,value
2018-08-21T00:00:24.443Z,31.30
2018-08-21T00:01:24.468Z,31.10
2018-08-21T00:02:24.600Z,35.30
2018-08-21T00:03:24.618Z,29.90
2018-08-21T00:04:24.669Z,31.10
2018-08-21T00:05:24.517Z,30.50
2018-08-21T00:06:24.534Z,28.80
2018-08-21T00:07:24.669Z,30.10
2018-08-21T00:08:24.685Z,30.20
2018-08-21T00:09:24.750Z,27.30
2018-08-21T00:10:24.584Z,28.30
2018-08-21T00:11:24.875Z,29.70
2018-08-21T00:12:24.617Z,29.40
2018-08-21T00:13:24.628Z,28.20
2018-08-21T00:14:24.765Z,33.50
2018-08-21T00:15:24.653Z,32.50
2018-08-21T00:16:24.998Z,29.60
2018-08-21T00:17:24.688Z,30.50
2018-08-21T00:18:24.826Z,32.60
2018-08-21T00:19:24.710Z,33.30
2018-08-21T00:20:24.726Z,30.80
2018-08-21T00:21:24.886Z,32.70
2018-08-21T00:22:24.755Z,30.70
2018-08-21T00:23:24.889Z,29.60
2018-08-21T00:24:24.783Z,34.90
2018-08-21T00:25:24.918Z,31.80
2018-08-21T00:26:24.966Z,31.70
2018-08-21T00:27:24.860Z,31.70
2018-08-21T00:28:24.846Z,32.60
2018-08-21T00:29:24.846Z,32.10
2018-08-21T00:30:24.982Z,30.90
2018-08-21T00:31:24.961Z,33.00
2018-08-21T00:32:25.008Z,29.10
2018-08-21T00:33:24.901Z,30.60
2018-08-21T00:34:25.038Z,33.00
2018-08-21T00:35:24.923Z,29.40
2018-08-21T00:36:25.119Z,31.20
2018-08-21T00:37:25.077Z,28.40
2018-08-21T00:38:24.975Z,29.70
2018-08-21T00:39:24.978Z,37.20
2018-08-21T00:40:25.267Z,39.30
2018-08-21T00:41:25.011Z,36.40
2018-08-21T00:42:25.017Z,39.30
2018-08-21T00:43:25.156Z,38.70
2018-08-21T00:44:25.044Z,36.40
2018-08-21T00:45:25.230Z,44.60
2018-08-21T00:46:25.085Z,38.50
2018-08-21T00:47:25.246Z,37.20
2018-08-21T00:48:25.137Z,43.50
2018-08-21T00:49:25.240Z,40.50
2018-08-21T00:50:25.251Z,41.90
2018-08-21T00:51:25.139Z,37.10
2018-08-21T00:52:25.204Z,41.00
2018-08-21T00:53:25.395Z,37.60
2018-08-21T00:54:25.319Z,38.90
2018-08-21T00:55:25.210Z,39.50
2018-08-21T00:56:25.199Z,40.30
2018-08-21T00:57:25.223Z,37.90
2018-08-21T00:58:25.385Z,40.00
2018-08-21T00:59:25.253Z,34.00
2018-08-21T01:00:25.381Z,43.20
2018-08-21T01:01:25.270Z,40.40
2018-08-21T01:02:25.284Z,45.20
2018-08-21T01:03:25.302Z,41.60
2018-08-21T01:04:25.504Z,37.80
2018-08-21T01:05:25.322Z,37.90
2018-08-21T01:06:25.340Z,38.40
2018-08-21T01:07:25.474Z,43.90
2018-08-21T01:08:25.358Z,40.40
2018-08-21T01:09:25.480Z,40.30
2018-08-21T01:10:25.512Z,41.20
2018-08-21T01:11:25.410Z,41.80
2018-08-21T01:12:25.540Z,39.40
2018-08-21T01:13:25.559Z,45.30
2018-08-21T01:14:25.633Z,43.50
2018-08-21T01:15:25.458Z,39.40
2018-08-21T01:16:25.510Z,41.10
2018-08-21T01:17:25.482Z,40.20
2018-08-21T01:18:25.491Z,40.00
2018-08-21T01:19:25.603Z,38.40
2018-08-21T01:20:25.516Z,38.40
2018-08-21T01:21:25.659Z,39.40
2018-08-21T01:22:25.668Z,41.50
2018-08-21T01:23:25.553Z,41.40
2018-08-21T01:24:25.667Z,42.80
2018-08-21T01:25:25.581Z,40.50
2018-08-21T01:26:25.595Z,41.40
2018-08-21T01:27:25.622Z,40.70
2018-08-21T01:28:25.751Z,40.20
2018-08-21T01:29:25.814Z,41.90
2018-08-21T01:30:25.657Z,40.10
2018-08-21T01:31:25.672Z,39.70
2018-08-21T01:32:25.764Z,40.00
2018-08-21T01:33:25.700Z,38.20
2018-08-21T01:34:25.924Z,40.40
2018-08-21T01:35:25.717Z,43.00
2018-08-21T01:36:25.727Z,45.40
2018-08-21T01:37:25.869Z,44.60
2018-08-21T01:38:25.879Z,40.10
2018-08-21T01:39:26.045Z,41.20
2018-08-21T01:40:25.904Z,39.40
2018-08-21T01:41:25.791Z,40.90
2018-08-21T01:42:25.933Z,40.00
2018-08-21T01:43:25.945Z,38.50
2018-08-21T01:44:26.105Z,40.60
2018-08-21T01:45:25.844Z,32.00
2018-08-21T01:46:25.869Z,34.10
2018-08-21T01:47:25.915Z,30.90
2018-08-21T01:48:25.887Z,34.50
2018-08-21T01:49:26.173Z,35.90
2018-08-21T01:50:26.039Z,33.20
2018-08-21T01:51:25.914Z,34.10
2018-08-21T01:52:25.933Z,35.60
2018-08-21T01:53:26.084Z,34.40
2018-08-21T01:54:26.184Z,30.40
2018-08-21T01:55:26.104Z,32.10
2018-08-21T01:56:26.109Z,31.80
2018-08-21T01:57:26.003Z,33.50
2018-08-21T01:58:26.141Z,34.60
2018-08-21T01:59:26.199Z,35.60
2018-08-21T02:00:26.167Z,35.60
2018-08-21T02:01:26.051Z,31.40
2018-08-21T02:02:26.071Z,36.60
2018-08-21T02:03:26.205Z,39.40
2018-08-21T02:04:26.235Z,36.70
2018-08-21T02:05:26.103Z,37.30
2018-08-21T02:06:26.129Z,35.30
2018-08-21T02:07:26.131Z,39.90
2018-08-21T02:08:26.140Z,37.20
2018-08-21T02:09:26.308Z,43.80
2018-08-21T02:10:26.294Z,44.30
2018-08-21T02:11:26.300Z,41.10
2018-08-21T02:12:26.186Z,41.00
2018-08-21T02:13:26.216Z,43.50
2018-08-21T02:14:26.448Z,43.70
2018-08-21T02:15:26.227Z,47.10
2018-08-21T02:16:26.252Z,44.50
2018-08-21T02:17:26.384Z,46.90
2018-08-21T02:18:26.394Z,52.90
2018-08-21T02:19:26.562Z,48.00
2018-08-21T02:20:26.421Z,48.20
2018-08-21T02:21:26.436Z,49.30
2018-08-21T02:22:26.324Z,48.10
2018-08-21T02:23:26.328Z,52.20
2018-08-21T02:24:26.495Z,53.30
2018-08-21T02:25:26.389Z,56.00
2018-08-21T02:26:26.383Z,53.20
2018-08-21T02:27:26.512Z,59.10
2018-08-21T02:28:26.516Z,55.10
2018-08-21T02:29:26.455Z,60.30
2018-08-21T02:30:26.459Z,58.40
2018-08-21T02:31:26.432Z,59.20
2018-08-21T02:32:26.573Z,63.00
2018-08-21T02:33:26.578Z,60.70
2018-08-21T02:34:26.592Z,62.60
2018-08-21T02:35:26.484Z,59.90
2018-08-21T02:36:26.615Z,56.40
2018-08-21T02:37:26.515Z,61.30
2018-08-21T02:38:26.798Z,64.50
2018-08-21T02:39:26.539Z,69.30
2018-08-21T02:40:26.670Z,67.40
2018-08-21T02:41:26.686Z,71.00
2018-08-21T02:42:26.570Z,75.10
2018-08-21T02:43:26.737Z,72.20
2018-08-21T02:44:26.723Z,74.20
2018-08-21T02:45:26.596Z,68.10
2018-08-21T02:46:26.622Z,72.70
2018-08-21T02:47:26.622Z,71.70
2018-08-21T02:48:26.752Z,72.20
2018-08-21T02:49:26.658Z,72.00
2018-08-21T02:50:26.792Z,70.90
2018-08-21T02:51:26.681Z,70.50
2018-08-21T02:52:26.707Z,65.70
2018-08-21T02:53:26.868Z,64.60
2018-08-21T02:54:26.840Z,65.90
2018-08-21T02:55:26.743Z,62.30
2018-08-21T02:56:26.749Z,65.10
2018-08-21T02:57:26.757Z,68.20
2018-08-21T02:58:26.918Z,67.90
2018-08-21T02:59:26.782Z,67.80
2018-08-21T03:00:26.802Z,65.70
2018-08-21T03:01:26.800Z,69.40
2018-08-21T03:02:26.941Z,66.90
2018-08-21T03:03:26.923Z,71.30
2018-08-21T03:04:26.961Z,63.30
2018-08-21T03:05:26.848Z,65.00
2018-08-21T03:06:26.865Z,63.40
2018-08-21T03:07:26.880Z,65.20
2018-08-21T03:08:27.033Z,69.70
2018-08-21T03:09:27.028Z,61.50
2018-08-21T03:10:26.912Z,70.30
2018-08-21T03:11:27.088Z,65.00
2018-08-21T03:12:26.935Z,68.50
2018-08-21T03:13:27.223Z,70.00
2018-08-21T03:14:26.966Z,73.20
2018-08-21T03:15:27.014Z,76.50
2018-08-21T03:16:26.986Z,73.60
2018-08-21T03:17:26.997Z,84.40
2018-08-21T03:18:27.160Z,78.80
2018-08-21T03:19:27.025Z,81.10
2018-08-21T03:20:27.027Z,86.70
2018-08-21T03:21:27.057Z,85.00
2018-08-21T03:22:27.068Z,85.00
2018-08-21T03:23:27.247Z,83.10
2018-08-21T03:24:27.082Z,78.20
2018-08-21T03:25:27.089Z,87.20
2018-08-21T03:26:27.256Z,77.60
2018-08-21T03:27:27.237Z,82.50
2018-08-21T03:28:27.251Z,86.90
2018-08-21T03:29:27.144Z,86.30
2018-08-21T03:30:27.163Z,90.10
2018-08-21T03:31:27.309Z,88.20
2018-08-21T03:32:27.208Z,90.90
2018-08-21T03:33:27.235Z,93.40
2018-08-21T03:34:27.203Z,94.30
2018-08-21T03:35:27.203Z,85.90
2018-08-21T03:36:27.501Z,94.90
2018-08-21T03:37:27.236Z,96.30
2018-08-21T03:38:27.253Z,92.10
2018-08-21T03:39:27.263Z,98.20
2018-08-21T03:40:27.258Z,99.00
2018-08-21T03:41:27.556Z,109.10
2018-08-21T03:42:27.415Z,136.50
2018-08-21T03:43:27.302Z,129.10
2018-08-21T03:44:27.320Z,136.70
2018-08-21T03:45:27.328Z,159.10
2018-08-21T03:46:27.621Z,189.00
2018-08-21T03:47:27.495Z,202.20
2018-08-21T03:48:27.362Z,192.20
2018-08-21T03:49:27.498Z,202.20
2018-08-21T03:50:27.514Z,209.00
2018-08-21T03:51:27.594Z,191.90
2018-08-21T03:52:27.409Z,248.10
2018-08-21T03:53:27.544Z,309.80
2018-08-21T03:54:27.563Z,231.00
2018-08-21T03:55:27.436Z,330.90
2018-08-21T03:56:27.636Z,206.70
2018-08-21T03:57:27.620Z,288.50
2018-08-21T03:58:27.486Z,355.70
2018-08-21T03:59:27.531Z,338.30
2018-08-21T04:00:27.524Z,409.80
2018-08-21T04:01:27.513Z,240.60
2018-08-21T04:02:27.961Z,338.50
2018-08-21T04:03:27.553Z,381.70
2018-08-21T04:04:27.681Z,572.80
2018-08-21T04:05:27.577Z,389.70
2018-08-21T04:06:27.612Z,487.30
2018-08-21T04:07:27.635Z,337.10
2018-08-21T04:08:27.828Z,338.40
2018-08-21T04:09:27.733Z,413.70
2018-08-21T04:10:27.750Z,396.70
2018-08-21T04:11:27.656Z,358.40
2018-08-21T04:12:27.770Z,477.20
2018-08-21T04:13:27.807Z,441.20
2018-08-21T04:14:27.792Z,547.90
2018-08-21T04:15:27.679Z,549.80
2018-08-21T04:16:27.691Z,557.30
2018-08-21T04:17:27.832Z,562.20
2018-08-21T04:18:27.873Z,511.10
2018-08-21T04:19:27.731Z,472.30
2018-08-21T04:20:27.737Z,468.80
2018-08-21T04:21:27.879Z,533.70
2018-08-21T04:22:27.769Z,389.70
2018-08-21T04:23:27.977Z,419.40
2018-08-21T04:24:27.922Z,405.10
2018-08-21T04:25:27.800Z,434.80
2018-08-21T04:26:27.820Z,297.70
2018-08-21T04:27:27.819Z,334.00
2018-08-21T04:28:27.885Z,311.20
2018-08-21T04:29:27.969Z,322.10
2018-08-21T04:30:28.002Z,396.00
2018-08-21T04:31:27.866Z,306.30
2018-08-21T04:32:27.898Z,368.80
2018-08-21T04:33:28.020Z,297.40
2018-08-21T04:34:28.024Z,299.00
2018-08-21T04:35:27.921Z,262.00
2018-08-21T04:36:28.131Z,230.80
2018-08-21T04:37:27.937Z,214.10
2018-08-21T04:38:27.942Z,213.80
2018-08-21T04:39:28.083Z,245.80
2018-08-21T04:40:27.976Z,332.40
2018-08-21T04:41:28.260Z,369.40
2018-08-21T04:42:28.122Z,417.40
2018-08-21T04:43:28.136Z,382.70
2018-08-21T04:44:28.146Z,310.50
2018-08-21T04:45:28.030Z,336.50
2018-08-21T04:46:28.341Z,250.20
2018-08-21T04:47:28.073Z,314.50
2018-08-21T04:48:28.192Z,321.70
2018-08-21T04:49:28.078Z,323.70
2018-08-21T04:50:28.098Z,323.10
2018-08-21T04:51:28.245Z,384.60
2018-08-21T04:52:28.249Z,280.20
2018-08-21T04:53:28.122Z,285.70
2018-08-21T04:54:28.256Z,272.80
2018-08-21T04:55:28.150Z,240.20
2018-08-21T04:56:28.256Z,253.50
2018-08-21T04:57:28.170Z,274.30
2018-08-21T04:58:28.314Z,324.30
2018-08-21T04:59:28.321Z,309.70
2018-08-21T05:00:28.202Z,279.90
2018-08-21T05:01:28.380Z,326.70
2018-08-21T05:02:28.226Z,352.90
2018-08-21T05:03:28.259Z,239.10
2018-08-21T05:04:28.242Z,362.60
2018-08-21T05:05:28.387Z,293.40
2018-08-21T05:06:28.527Z,254.10
2018-08-21T05:07:28.411Z,271.30
2018-08-21T05:08:28.416Z,300.20
2018-08-21T05:09:28.309Z,284.10
2018-08-21T05:10:28.314Z,266.10
2018-08-21T05:11:28.607Z,350.90
2018-08-21T05:12:28.348Z,333.00
2018-08-21T05:13:28.477Z,253.40
2018-08-21T05:14:28.365Z,288.30
2018-08-21T05:15:28.501Z,270.30
2018-08-21T05:16:28.554Z,343.90
2018-08-21T05:17:28.527Z,262.70
2018-08-21T05:18:28.415Z,259.90
2018-08-21T05:19:28.423Z,236.80
2018-08-21T05:20:28.436Z,310.80
2018-08-21T05:21:28.721Z,313.70
2018-08-21T05:22:28.463Z,330.40
2018-08-21T05:23:28.593Z,297.10
2018-08-21T05:24:28.477Z,320.30
2018-08-21T05:25:28.488Z,277.60
2018-08-21T05:26:28.781Z,231.00
2018-08-21T05:27:28.507Z,274.00
2018-08-21T05:28:28.586Z,319.20
2018-08-21T05:29:28.542Z,353.90
2018-08-21T05:30:28.545Z,250.80
2018-08-21T05:31:28.783Z,319.80
2018-08-21T05:32:28.573Z,274.70
2018-08-21T05:33:28.707Z,311.90
2018-08-21T05:34:28.716Z,354.70
2018-08-21T05:35:28.730Z,381.20
2018-08-21T05:36:28.766Z,483.50
2018-08-21T05:37:28.750Z,467.10
2018-08-21T05:38:28.636Z,378.40
2018-08-21T05:39:28.651Z,396.30
2018-08-21T05:40:28.784Z,277.80
2018-08-21T05:41:28.827Z,379.90
2018-08-21T05:42:28.683Z,256.40
2018-08-21T05:43:28.822Z,230.40
2018-08-21T05:44:28.709Z,232.40
2018-08-21T05:45:28.840Z,284.70
2018-08-21T05:46:28.883Z,277.90
2018-08-21T05:47:28.866Z,269.70
2018-08-21T05:48:28.750Z,375.70
2018-08-21T05:49:28.893Z,257.90
2018-08-21T05:50:28.776Z,239.10
2018-08-21T05:51:28.978Z,317.30
2018-08-21T05:52:28.809Z,464.10
2018-08-21T05:53:28.808Z,354.30
2018-08-21T05:54:28.943Z,340.50
2018-08-21T05:55:29.055Z,358.10
2018-08-21T05:56:28.998Z,463.90
2018-08-21T05:57:28.857Z,348.20
2018-08-21T05:58:28.863Z,387.00
2018-08-21T05:59:29.007Z,242.70
2018-08-21T06:00:29.011Z,309.00
2018-08-21T06:01:29.051Z,539.50
2018-08-21T06:02:29.040Z,402.90
2018-08-21T06:03:29.053Z,466.60
2018-08-21T06:04:29.060Z,297.00
2018-08-21T06:05:28.951Z,317.10
2018-08-21T06:06:28.958Z,426.40
2018-08-21T06:07:29.246Z,269.30
2018-08-21T06:08:28.983Z,203.50
2018-08-21T06:09:28.992Z,259.10
2018-08-21T06:10:29.001Z,407.20
2018-08-21T06:11:29.146Z,244.10
2018-08-21T06:12:29.081Z,295.30
2018-08-21T06:13:29.170Z,369.60
2018-08-21T06:14:29.056Z,268.80
2018-08-21T06:15:29.069Z,386.40
2018-08-21T06:16:29.085Z,333.80
2018-08-21T06:17:29.310Z,355.60
2018-08-21T06:18:29.107Z,374.90
2018-08-21T06:19:29.235Z,360.30
2018-08-21T06:20:29.245Z,317.60
2018-08-21T06:21:29.138Z,294.70
2018-08-21T06:22:29.426Z,239.00
2018-08-21T06:23:29.165Z,292.50
2018-08-21T06:24:29.292Z,392.70
2018-08-21T06:25:29.185Z,424.50
2018-08-21T06:26:29.193Z,328.60
2018-08-21T06:27:29.355Z,367.00
2018-08-21T06:28:29.218Z,333.10
2018-08-21T06:29:29.237Z,305.80
2018-08-21T06:30:29.234Z,285.60
2018-08-21T06:31:29.267Z,250.60
2018-08-21T06:32:29.535Z,252.50
2018-08-21T06:33:29.278Z,264.80
2018-08-21T06:34:29.292Z,362.60
2018-08-21T06:35:29.293Z,340.40
2018-08-21T06:36:29.321Z,347.10
2018-08-21T06:37:29.518Z,275.30
2018-08-21T06:38:29.332Z,265.60
2018-08-21T06:39:29.351Z,344.40
2018-08-21T06:40:29.477Z,288.70
2018-08-21T06:41:29.494Z,276.00
2018-08-21T06:42:29.526Z,240.00
2018-08-21T06:43:29.390Z,297.00
2018-08-21T06:44:29.417Z,326.10
2018-08-21T06:45:29.539Z,293.30
2018-08-21T06:46:29.471Z,269.80
2018-08-21T06:47:29.540Z,252.40
2018-08-21T06:48:29.572Z,264.00
2018-08-21T06:49:29.464Z,293.30
2018-08-21T06:50:29.502Z,394.00
2018-08-21T06:51:29.509Z,284.20
2018-08-21T06:52:29.551Z,293.70
2018-08-21T06:53:29.505Z,377.70
2018-08-21T06:54:29.645Z,350.90
2018-08-21T06:55:29.641Z,317.10
2018-08-21T06:56:29.537Z,346.90
2018-08-21T06:57:29.554Z,404.80
2018-08-21T06:58:29.562Z,295.00
2018-08-21T06:59:29.591Z,254.10
2018-08-21T07:00:29.732Z,391.70
2018-08-21T07:01:29.717Z,311.90
2018-08-21T07:02:29.605Z,260.10
2018-08-21T07:03:29.617Z,266.80
2018-08-21T07:04:29.754Z,324.40
2018-08-21T07:05:29.808Z,279.50
2018-08-21T07:06:29.641Z,306.90
2018-08-21T07:07:29.659Z,594.50
2018-08-21T07:08:29.668Z,448.20
2018-08-21T07:09:29.807Z,358.50
2018-08-21T07:10:29.924Z,364.90
2018-08-21T07:11:29.833Z,412.70
2018-08-21T07:12:29.718Z,487.80
2018-08-21T07:13:29.731Z,489.00
2018-08-21T07:14:29.839Z,465.40
2018-08-21T07:15:29.932Z,463.80
2018-08-21T07:16:29.767Z,518.90
2018-08-21T07:17:29.778Z,492.90
2018-08-21T07:18:29.782Z,404.70
2018-08-21T07:19:29.802Z,333.90
2018-08-21T07:20:30.086Z,324.40
2018-08-21T07:21:29.840Z,402.70
2018-08-21T07:22:29.846Z,488.70
2018-08-21T07:23:29.976Z,461.30
2018-08-21T07:24:29.856Z,451.60
2018-08-21T07:25:29.968Z,428.50
2018-08-21T07:26:30.007Z,374.30
2018-08-21T07:27:30.019Z,391.00
2018-08-21T07:28:29.899Z,472.70
2018-08-21T07:29:29.913Z,383.40
2018-08-21T07:30:30.198Z,402.30
2018-08-21T07:31:29.939Z,348.50
2018-08-21T07:32:29.960Z,419.80
2018-08-21T07:33:29.978Z,379.90
2018-08-21T07:34:30.097Z,336.30
2018-08-21T07:35:30.120Z,357.20
2018-08-21T07:36:30.118Z,284.60
2018-08-21T07:37:30.004Z,282.00
2018-08-21T07:38:30.017Z,254.40
2018-08-21T07:39:30.172Z,262.70
2018-08-21T07:40:30.038Z,305.50
2018-08-21T07:41:30.056Z,367.10
2018-08-21T07:42:30.100Z,334.60
2018-08-21T07:43:30.076Z,305.40
2018-08-21T07:44:30.190Z,399.50
2018-08-21T07:45:30.219Z,375.90
2018-08-21T07:46:30.191Z,349.10
2018-08-21T07:47:30.129Z,309.20
2018-08-21T07:48:30.251Z,327.90
2018-08-21T07:49:30.289Z,332.90
2018-08-21T07:50:30.163Z,323.40
2018-08-21T07:51:30.168Z,345.00
2018-08-21T07:52:30.177Z,373.20
2018-08-21T07:53:30.179Z,334.60
2018-08-21T07:54:30.312Z,310.10
2018-08-21T07:55:30.213Z,386.30
2018-08-21T07:56:30.225Z,303.30
2018-08-21T07:57:30.359Z,395.40
2018-08-21T07:58:30.370Z,422.90
2018-08-21T07:59:30.534Z,410.70
2018-08-21T08:00:30.260Z,338.90
2018-08-21T08:01:30.401Z,359.30
2018-08-21T08:02:30.288Z,332.70
2018-08-21T08:03:30.300Z,332.10
2018-08-21T08:04:30.404Z,324.70
2018-08-21T08:05:30.327Z,359.50
2018-08-21T08:06:30.345Z,337.00
2018-08-21T08:07:30.349Z,359.50
2018-08-21T08:08:30.417Z,327.10
2018-08-21T08:09:30.516Z,318.70
2018-08-21T08:10:30.371Z,374.30
2018-08-21T08:11:30.415Z,381.00
2018-08-21T08:12:30.524Z,329.60
2018-08-21T08:13:30.441Z,332.90
2018-08-21T08:14:30.523Z,321.90
2018-08-21T08:15:30.560Z,305.10
2018-08-21T08:16:30.445Z,327.20
2018-08-21T08:17:30.580Z,344.40
2018-08-21T08:18:30.465Z,352.40
2018-08-21T08:19:30.758Z,344.00
2018-08-21T08:20:30.498Z,412.40
2018-08-21T08:21:30.532Z,463.80
2018-08-21T08:22:30.509Z,477.50
2018-08-21T08:23:30.602Z,336.10
2018-08-21T08:24:30.578Z,363.40
2018-08-21T08:25:30.554Z,402.30
2018-08-21T08:26:30.560Z,485.60
2018-08-21T08:27:30.583Z,460.20
2018-08-21T08:28:30.582Z,369.10
2018-08-21T08:29:30.691Z,366.40
2018-08-21T08:30:30.613Z,377.30
2018-08-21T08:31:30.620Z,343.40
2018-08-21T08:32:30.636Z,291.70
2018-08-21T08:33:30.632Z,322.20
2018-08-21T08:34:30.752Z,291.30
2018-08-21T08:35:30.786Z,289.40
2018-08-21T08:36:30.797Z,306.90
2018-08-21T08:37:30.676Z,287.40
2018-08-21T08:38:30.700Z,271.90
2018-08-21T08:39:30.982Z,280.60
2018-08-21T08:40:30.927Z,276.90
2018-08-21T08:41:30.861Z,285.70
2018-08-21T08:42:30.740Z,320.30
2018-08-21T08:43:30.872Z,262.50
2018-08-21T08:44:30.937Z,270.90
2018-08-21T08:45:30.762Z,254.90
2018-08-21T08:46:30.783Z,260.60
2018-08-21T08:47:30.836Z,264.60
2018-08-21T08:48:30.928Z,285.80
2018-08-21T08:49:30.962Z,323.60
2018-08-21T08:50:30.828Z,276.40
2018-08-21T08:51:30.839Z,252.80
2018-08-21T08:52:30.854Z,273.70
2018-08-21T08:53:30.978Z,259.30
2018-08-21T08:54:30.965Z,261.70
2018-08-21T08:55:31.002Z,323.80
2018-08-21T08:56:30.891Z,360.50
2018-08-21T08:57:30.948Z,405.50
2018-08-21T08:58:30.948Z,455.60
2018-08-21T08:59:31.145Z,577.10
2018-08-21T09:00:30.983Z,543.10
2018-08-21T09:01:30.956Z,514.60
2018-08-21T09:02:31.097Z,496.90
2018-08-21T09:03:31.088Z,472.40
2018-08-21T09:04:31.085Z,427.10
2018-08-21T09:05:30.991Z,488.10
2018-08-21T09:06:31.000Z,478.70
2018-08-21T09:07:31.132Z,476.80
2018-08-21T09:08:31.016Z,413.40
2018-08-21T09:09:31.260Z,555.90
2018-08-21T09:10:31.077Z,597.30
2018-08-21T09:11:31.046Z,565.30
2018-08-21T09:12:31.074Z,601.00
2018-08-21T09:13:31.199Z,655.10
2018-08-21T09:14:31.079Z,633.20
2018-08-21T09:15:31.155Z,586.30
2018-08-21T09:16:31.225Z,532.40
2018-08-21T09:17:31.211Z,503.30
2018-08-21T09:18:31.122Z,503.30
2018-08-21T09:19:31.262Z,503.60
2018-08-21T09:20:31.367Z,558.70
2018-08-21T09:21:31.161Z,560.00
2018-08-21T09:22:31.168Z,500.90
2018-08-21T09:23:31.175Z,548.90
2018-08-21T09:24:31.193Z,481.30
2018-08-21T09:25:31.308Z,537.10
2018-08-21T09:26:31.359Z,580.20
2018-08-21T09:27:31.372Z,538.40
2018-08-21T09:28:31.226Z,510.50
2018-08-21T09:29:31.300Z,605.70
2018-08-21T09:30:31.489Z,504.30
2018-08-21T09:32:31.275Z,542.70
2018-08-21T09:37:31.341Z,408.50
2018-08-21T09:38:31.381Z,345.60
2018-08-21T09:39:31.357Z,405.80
2018-08-21T09:40:31.408Z,404.00
2018-08-21T09:41:31.579Z,288.00
2018-08-21T09:42:31.383Z,235.20
2018-08-21T09:43:31.448Z,245.80
2018-08-21T09:44:31.532Z,262.90
2018-08-21T09:45:31.548Z,247.00
2018-08-21T09:46:31.523Z,261.20
2018-08-21T09:47:31.444Z,249.90
2018-08-21T09:48:31.449Z,236.70
2018-08-21T09:49:31.461Z,215.10
2018-08-21T09:50:31.476Z,220.90
2018-08-21T09:51:31.709Z,195.60
2018-08-21T09:52:31.496Z,162.50
2018-08-21T09:53:31.495Z,148.20
2018-08-21T09:54:31.513Z,142.70
2018-08-21T09:55:31.515Z,145.80
2018-08-21T09:56:31.967Z,147.10
2018-08-21T09:57:31.550Z,182.70
2018-08-21T09:58:31.565Z,156.70
2018-08-21T09:59:31.701Z,164.20
2018-08-21T10:00:31.589Z,135.40
2018-08-21T10:01:31.875Z,119.90
2018-08-21T10:02:31.603Z,107.70
2018-08-21T10:03:31.618Z,97.30
2018-08-21T10:04:31.637Z,89.00
2018-08-21T10:10:31.834Z,39.70
2018-08-21T10:11:31.764Z,46.90
2018-08-21T10:12:31.738Z,44.90
2018-08-21T10:13:31.895Z,38.80
2018-08-21T10:14:31.888Z,37.90
2018-08-21T10:15:31.903Z,33.50
2018-08-21T10:16:31.917Z,27.90
2018-08-21T10:17:31.801Z,28.80
2018-08-21T10:18:31.924Z,30.70
2018-08-21T10:19:31.828Z,26.90
2018-08-21T10:20:31.848Z,33.00
2018-08-21T10:21:31.865Z,31.10
2018-08-21T10:22:31.997Z,28.50
2018-08-21T10:23:31.977Z,26.20
2018-08-21T10:24:32.029Z,25.00
2018-08-21T10:25:31.933Z,22.00
2018-08-21T10:26:31.926Z,24.40
2018-08-21T10:27:31.952Z,24.00
2018-08-21T10:28:32.068Z,25.20
2018-08-21T10:29:32.101Z,24.80
2018-08-21T10:30:32.112Z,23.20
2018-08-21T10:31:32.022Z,24.40
2018-08-21T10:32:32.144Z,28.60
2018-08-21T10:33:32.127Z,26.00
2018-08-21T10:34:32.050Z,29.60
2018-08-21T10:35:32.186Z,27.10
2018-08-21T10:36:32.197Z,25.10
2018-08-21T10:37:32.084Z,27.10
2018-08-21T10:38:32.377Z,24.30
2018-08-21T10:39:32.241Z,24.30
2018-08-21T10:40:32.132Z,25.20
2018-08-21T10:41:32.144Z,25.20
2018-08-21T10:42:32.286Z,23.50
2018-08-21T10:43:32.449Z,24.00
2018-08-21T10:44:32.318Z,20.10
2018-08-21T10:45:32.332Z,25.40
2018-08-21T10:46:32.234Z,25.50
2018-08-21T10:47:32.227Z,19.50
2018-08-21T10:48:32.468Z,23.60
2018-08-21T10:49:32.276Z,24.10
2018-08-21T10:50:32.272Z,22.20
2018-08-21T10:51:32.417Z,26.40
2018-08-21T10:52:32.300Z,23.70
2018-08-21T10:53:32.442Z,21.50
2018-08-21T10:54:32.462Z,21.60
2018-08-21T10:55:32.478Z,23.80
2018-08-21T10:56:32.377Z,23.90
2018-08-21T10:57:32.373Z,22.00
2018-08-21T10:58:32.503Z,25.10
2018-08-21T10:59:32.404Z,24.50
2018-08-21T11:00:32.539Z,22.00
2018-08-21T11:01:32.558Z,23.20
2018-08-21T11:02:32.567Z,23.90
2018-08-21T11:03:32.713Z,24.30
2018-08-21T11:04:32.466Z,26.80
2018-08-21T11:05:32.483Z,21.80
2018-08-21T11:06:32.628Z,18.70
2018-08-21T11:07:32.637Z,20.90
2018-08-21T11:08:32.909Z,20.40
2018-08-21T11:09:32.554Z,22.20
2018-08-21T11:10:32.685Z,25.00
2018-08-21T11:11:32.582Z,22.60
2018-08-21T11:12:32.748Z,19.50
2018-08-21T11:13:32.989Z,25.60
2018-08-21T11:14:32.748Z,24.60
2018-08-21T11:15:32.659Z,25.90
2018-08-21T11:16:32.656Z,21.90
2018-08-21T11:17:32.707Z,22.70
2018-08-21T11:18:32.967Z,20.00
2018-08-21T11:19:32.711Z,20.10
2018-08-21T11:20:32.858Z,19.00
2018-08-21T11:21:32.796Z,21.80
2018-08-21T11:22:32.891Z,19.30
2018-08-21T11:23:32.937Z,19.30
2018-08-21T11:24:32.924Z,20.90
2018-08-21T11:25:32.947Z,19.30
2018-08-21T11:26:32.845Z,19.80
2018-08-21T11:27:32.852Z,20.70
2018-08-21T11:28:33.081Z,25.10
2018-08-21T11:29:32.941Z,22.90
2018-08-21T11:30:33.029Z,18.50
2018-08-21T11:31:33.056Z,21.80
2018-08-21T11:32:32.953Z,20.70
2018-08-21T11:33:33.222Z,25.40
2018-08-21T11:34:33.018Z,22.00
2018-08-21T11:35:33.012Z,20.20
2018-08-21T11:36:33.017Z,25.60
2018-08-21T11:37:33.161Z,24.30
2018-08-21T11:38:33.198Z,21.80
2018-08-21T11:39:33.085Z,21.40
2018-08-21T11:40:33.218Z,21.60
2018-08-21T11:41:33.115Z,22.80
2018-08-21T11:42:33.255Z,18.40
2018-08-21T11:43:33.404Z,22.10
2018-08-21T11:44:33.315Z,19.20
2018-08-21T11:45:33.307Z,17.90
2018-08-21T11:46:33.215Z,20.90
2018-08-21T11:47:33.215Z,17.50
2018-08-21T11:48:33.620Z,18.70
2018-08-21T11:49:33.385Z,20.70
2018-08-21T11:50:33.321Z,18.80
2018-08-21T11:51:33.429Z,22.10
2018-08-21T11:52:33.326Z,20.20
2018-08-21T11:53:33.591Z,17.80
2018-08-21T11:54:33.363Z,19.90
2018-08-21T11:55:33.497Z,20.80
2018-08-21T11:56:33.393Z,21.30
2018-08-21T11:57:33.421Z,17.70
2018-08-21T11:58:33.539Z,23.10
2018-08-21T11:59:33.463Z,20.10
2018-08-21T12:00:33.597Z,26.60
2018-08-21T12:01:33.619Z,18.50
2018-08-21T12:02:33.629Z,20.20
2018-08-21T12:03:33.756Z,16.30
2018-08-21T12:04:33.545Z,18.60
2018-08-21T12:05:33.569Z,16.50
2018-08-21T12:06:33.581Z,18.80
2018-08-21T12:07:33.597Z,20.10
2018-08-21T12:08:33.894Z,18.50
2018-08-21T12:09:33.644Z,19.10
2018-08-21T12:10:33.779Z,19.20
2018-08-21T12:11:33.671Z,21.30
2018-08-21T12:12:33.699Z,18.50
2018-08-21T12:13:33.988Z,21.40
2018-08-21T12:14:33.733Z,20.10
2018-08-21T12:15:33.871Z,20.60
2018-08-21T12:16:33.891Z,25.10
2018-08-21T12:17:33.787Z,17.90
2018-08-21T12:18:33.927Z,19.80
2018-08-21T12:19:34.094Z,18.00
2018-08-21T12:20:33.966Z,19.00
2018-08-21T12:21:33.862Z,18.90
2018-08-21T12:22:34.003Z,19.80
2018-08-21T12:23:34.020Z,17.20
2018-08-21T12:24:34.012Z,18.20
2018-08-21T12:25:34.057Z,16.00
2018-08-21T12:26:34.073Z,22.80
2018-08-21T12:27:33.972Z,16.60
2018-08-21T12:28:33.991Z,16.80
2018-08-21T12:29:34.126Z,21.30
2018-08-21T12:30:34.026Z,17.20
2018-08-21T12:31:34.038Z,16.00
2018-08-21T12:32:34.179Z,17.30
2018-08-21T12:33:34.203Z,17.60
2018-08-21T12:34:34.246Z,17.60
2018-08-21T12:35:34.239Z,19.20
2018-08-21T12:36:34.251Z,19.30
2018-08-21T12:37:34.158Z,17.50
2018-08-21T12:38:34.160Z,18.70
2018-08-21T12:39:34.334Z,20.30
2018-08-21T12:40:34.321Z,16.20
2018-08-21T12:41:34.344Z,15.80
2018-08-21T12:42:34.238Z,15.80
2018-08-21T12:43:34.377Z,18.90
2018-08-21T12:44:34.325Z,15.70
2018-08-21T12:45:34.415Z,18.10
2018-08-21T12:46:34.429Z,17.00
2018-08-21T12:47:34.329Z,15.00
2018-08-21T12:48:34.359Z,15.60
2018-08-21T12:49:34.556Z,14.60
2018-08-21T12:50:34.561Z,14.50